Time;durP1;ratioP1;P1;durP2;ratioP2;P2;SDS_P1;SDS_P2;PMS_P1;PMS_P2;Temp;Humidity;BMP_temperature;BMP_pressure;BME280_temperature;BME280_humidity;BME280_pressure;Samples;Min_cycle;Max_cycle;Signal;HPM_P1;HPM_P2
2022/10/26 00:01:19;;;;;;;15.93;8.18;;;;;;;9.38;100.00;101098.84;10496005;28;20049;-64
2022/10/26 00:06:24;;;;;;;12.75;7.38;;;;;;;9.50;100.00;101097.56;10493755;28;20094;-65
2022/10/26 00:11:25;;;;;;;10.75;7.95;;;;;;;9.50;100.00;101082.81;10495407;28;20477;-65
2022/10/26 00:16:28;;;;;;;13.18;6.97;;;;;;;9.53;100.00;101076.63;10494997;28;20526;-64
2022/10/26 00:21:30;;;;;;;16.63;7.13;;;;;;;9.53;100.00;101074.91;10495360;28;20049;-66
2022/10/26 00:26:32;;;;;;;16.25;7.13;;;;;;;9.64;100.00;101071.91;10495385;28;20079;-64
2022/10/26 00:31:36;;;;;;;14.13;6.95;;;;;;;9.75;100.00;101052.44;10495394;28;20081;-64
2022/10/26 00:36:38;;;;;;;14.38;7.35;;;;;;;9.67;100.00;101044.88;10492536;28;20044;-65
2022/10/26 00:41:40;;;;;;;;;;;;;;;9.72;100.00;101058.59;10494946;28;20045;-65
2022/10/26 00:46:43;;;;;;;12.70;6.37;;;;;;;9.84;100.00;101072.09;10495386;28;19924;-65
2022/10/26 00:51:51;;;;;;;10.05;5.78;;;;;;;9.88;100.00;101060.66;10494508;28;20643;-64
2022/10/26 00:56:55;;;;;;;13.35;6.25;;;;;;;9.98;100.00;101064.63;10494633;28;20094;-64
2022/10/26 01:01:59;;;;;;;11.55;6.22;;;;;;;9.96;100.00;101053.41;10494490;28;20063;-64
2022/10/26 01:07:04;;;;;;;13.30;6.00;;;;;;;9.91;100.00;101048.38;10491653;28;20098;-64
2022/10/26 01:12:06;;;;;;;13.10;6.28;;;;;;;9.90;100.00;101045.81;10494249;28;20060;-63
2022/10/26 01:17:30;;;;;;;14.18;6.57;;;;;;;10.07;100.00;101046.94;10494413;28;20075;-65
2022/10/26 01:22:42;;;;;;;9.27;6.13;;;;;;;10.04;100.00;101035.75;10494329;28;20056;-65
2022/10/26 01:27:48;;;;;;;13.45;6.38;;;;;;;10.01;100.00;101033.25;10493911;28;20052;-64
2022/10/26 01:33:10;;;;;;;12.90;7.10;;;;;;;10.23;100.00;101021.16;10494386;28;20068;-65
2022/10/26 01:38:22;;;;;;;16.73;6.82;;;;;;;10.07;100.00;101018.28;10491314;28;20048;-65
2022/10/26 01:43:28;;;;;;;13.25;7.43;;;;;;;9.93;100.00;101014.44;10493981;28;20044;-65
2022/10/26 01:48:34;;;;;;;11.95;7.05;;;;;;;9.88;100.00;101011.13;10493445;28;20481;-65
2022/10/26 01:53:45;;;;;;;11.88;7.25;;;;;;;9.88;100.00;101008.53;10497832;28;20504;-65
2022/10/26 01:59:10;;;;;;;16.53;7.60;;;;;;;9.86;100.00;101008.56;10500549;28;20079;-65
2022/10/26 02:04:29;;;;;;;12.68;6.88;;;;;;;10.02;100.00;101008.88;10501014;28;20105;-65
2022/10/26 02:09:44;;;;;;;10.20;7.28;;;;;;;9.90;100.00;100996.28;10498149;28;20048;-65
2022/10/26 02:14:51;;;;;;;11.00;6.32;;;;;;;9.95;100.00;100990.91;10500319;28;20094;-65
2022/10/26 02:20:02;;;;;;;10.10;5.88;;;;;;;10.30;100.00;100986.94;10500437;28;20086;-65
2022/10/26 02:25:11;;;;;;;9.80;6.05;;;;;;;10.14;100.00;100985.84;10499711;28;20094;-64
2022/10/26 02:30:13;;;;;;;12.35;5.80;;;;;;;10.09;100.00;100987.78;10499516;28;20063;-64
2022/10/26 02:35:21;;;;;;;9.45;5.60;;;;;;;10.05;100.00;100982.69;10499519;28;20113;-64
2022/10/26 02:40:28;;;;;;;6.82;4.57;;;;;;;10.20;100.00;100980.41;10498254;28;20094;-65
2022/10/26 02:45:37;;;;;;;10.65;4.80;;;;;;;10.18;100.00;100971.78;10499601;28;20048;-66
2022/10/26 02:50:53;;;;;;;9.52;4.80;;;;;;;10.04;100.00;100970.56;10498884;28;20059;-65
2022/10/26 02:55:55;;;;;;;10.70;4.80;;;;;;;9.91;100.00;100964.09;10498905;28;20055;-64
2022/10/26 03:00:58;;;;;;;;;;;;;;;9.86;100.00;100968.63;10498720;28;20463;-65
2022/10/26 03:06:01;;;;;;;10.43;4.80;;;;;;;9.82;100.00;100964.44;10495329;28;19956;-65
2022/10/26 03:11:04;;;;;;;11.02;4.28;;;;;;;9.79;100.00;100971.47;10497950;28;20547;-64
2022/10/26 03:16:06;;;;;;;10.60;5.30;;;;;;;9.78;100.00;100959.34;10497619;28;20052;-64
2022/10/26 03:21:09;;;;;;;12.25;5.65;;;;;;;9.81;100.00;100967.97;10497350;28;20471;-64
2022/10/26 03:26:11;;;;;;;10.88;4.53;;;;;;;9.86;100.00;100960.81;10497134;28;20044;-65
2022/10/26 03:31:13;;;;;;;9.95;5.05;;;;;;;9.92;100.00;100965.78;10497036;28;20558;-65
2022/10/26 03:36:16;;;;;;;12.40;4.47;;;;;;;9.94;100.00;100966.59;10494400;28;20056;-64
2022/10/26 03:41:17;;;;;;;11.13;4.68;;;;;;;10.05;100.00;100954.00;10496440;28;20098;-64
2022/10/26 03:46:19;;;;;;;13.02;4.57;;;;;;;10.21;100.00;100944.72;10497269;28;20053;-64
2022/10/26 03:51:22;;;;;;;7.10;3.90;;;;;;;10.14;100.00;100954.56;10496052;28;20085;-64
2022/10/26 03:56:24;;;;;;;8.95;4.47;;;;;;;10.33;100.00;100943.41;10496011;28;20070;-65
2022/10/26 04:01:26;;;;;;;9.27;3.58;;;;;;;10.35;100.00;100938.97;10496192;28;20511;-65
2022/10/26 04:06:30;;;;;;;9.82;3.95;;;;;;;10.39;100.00;100940.53;10493486;28;20044;-64
2022/10/26 04:11:32;;;;;;;11.27;4.13;;;;;;;10.36;100.00;100943.25;10496187;28;20511;-65
2022/10/26 04:16:34;;;;;;;8.98;3.53;;;;;;;10.31;100.00;100946.91;10494762;28;20148;-66
2022/10/26 04:21:37;;;;;;;10.23;3.75;;;;;;;10.47;100.00;100946.31;10495443;28;20458;-66
2022/10/26 04:26:38;;;;;;;5.63;3.35;;;;;;;10.56;100.00;100943.34;10495092;28;20083;-65
2022/10/26 04:31:41;;;;;;;5.57;3.13;;;;;;;10.65;100.00;100933.44;10494821;28;20087;-64
2022/10/26 04:36:45;;;;;;;6.22;3.35;;;;;;;10.90;100.00;100932.41;10492797;28;20105;-64
2022/10/26 04:41:47;;;;;;;8.60;3.40;;;;;;;10.89;100.00;100941.16;10494408;28;20522;-65
2022/10/26 04:46:50;;;;;;;6.30;3.40;;;;;;;10.93;100.00;100933.16;10494916;28;20484;-65
2022/10/26 04:51:53;;;;;;;6.25;3.15;;;;;;;10.92;100.00;100933.22;10494826;28;20502;-65
2022/10/26 04:56:54;;;;;;;5.55;3.28;;;;;;;11.11;100.00;100940.22;10495036;28;20484;-66
2022/10/26 05:01:56;;;;;;;6.18;3.17;;;;;;;11.06;100.00;100938.66;10494908;28;20049;-65
2022/10/26 05:06:59;;;;;;;11.48;4.03;;;;;;;11.12;100.00;100936.72;10492055;28;20399;-64
2022/10/26 05:12:01;;;;;;;7.57;3.53;;;;;;;11.08;100.00;100949.06;10494171;28;20085;-64
2022/10/26 05:17:02;;;;;;;10.73;3.95;;;;;;;11.06;100.00;100948.28;10495365;28;20062;-65
2022/10/26 05:22:05;;;;;;;10.10;3.38;;;;;;;11.07;100.00;100945.59;10494532;28;20098;-65
2022/10/26 05:27:07;;;;;;;11.38;3.80;;;;;;;11.15;100.00;100947.03;10496632;28;20083;-64
2022/10/26 05:32:09;;;;;;;10.65;3.67;;;;;;;11.15;100.00;100952.28;10501771;28;20459;-64
2022/10/26 05:37:13;;;;;;;9.63;3.75;;;;;;;11.17;100.00;100955.66;10499585;28;20048;-64
2022/10/26 05:42:15;;;;;;;7.40;3.63;;;;;;;11.15;100.00;100952.28;10501499;28;20098;-65
2022/10/26 05:47:16;;;;;;;10.48;4.18;;;;;;;11.11;100.00;100948.06;10501257;28;20063;-65
2022/10/26 05:52:20;;;;;;;13.90;3.85;;;;;;;11.13;100.00;100951.47;10501311;28;20040;-66
2022/10/26 05:57:22;;;;;;;8.77;3.67;;;;;;;11.05;100.00;100964.88;10500911;28;20094;-64
2022/10/26 06:02:39;;;;;;;13.50;4.38;;;;;;;11.22;100.00;100969.34;10500909;28;20121;-65
2022/10/26 06:07:43;;;;;;;6.63;3.65;;;;;;;11.12;100.00;100973.28;10498319;28;20045;-65
2022/10/26 06:12:46;;;;;;;6.15;3.80;;;;;;;11.01;100.00;100979.81;10500173;28;20593;-66
2022/10/26 06:18:05;;;;;;;7.75;4.10;;;;;;;10.93;100.00;100987.13;10500536;28;20535;-65
2022/10/26 06:23:37;;;;;;;9.07;3.53;;;;;;;10.81;100.00;100985.84;10500038;28;20059;-65
2022/10/26 06:28:53;;;;;;;7.05;3.70;;;;;;;10.64;100.00;100981.34;10499754;28;20094;-65
2022/10/26 06:33:59;;;;;;;11.65;4.07;;;;;;;10.52;100.00;100978.31;10498205;28;20052;-65
2022/10/26 06:39:06;;;;;;;8.30;4.28;;;;;;;10.44;100.00;100967.31;10495550;28;20102;-66
2022/10/26 06:44:20;;;;;;;6.97;4.50;;;;;;;10.44;100.00;100972.53;10498829;28;20040;-64
2022/10/26 06:49:31;;;;;;;12.82;4.68;;;;;;;10.50;100.00;100968.84;10497787;28;20049;-65
2022/10/26 06:54:50;;;;;;;31.58;4.88;;;;;;;10.62;100.00;100964.88;10498550;28;20543;-64
2022/10/26 06:59:56;;;;;;;13.50;4.18;;;;;;;10.77;100.00;100969.47;10498527;28;20098;-65
2022/10/26 07:04:58;;;;;;;6.90;3.95;;;;;;;10.85;100.00;100963.94;10498142;28;20442;-65
2022/10/26 07:10:02;;;;;;;6.22;4.22;;;;;;;10.85;100.00;100979.63;10496149;28;20052;-65
2022/10/26 07:15:07;;;;;;;12.35;4.35;;;;;;;10.82;100.00;101001.44;10497654;28;20056;-65
2022/10/26 07:20:11;;;;;;;13.25;4.72;;;;;;;10.83;100.00;100989.25;10497982;28;20473;-65
2022/10/26 07:25:14;;;;;;;7.07;4.05;;;;;;;10.91;100.00;100999.38;10497643;28;20079;-65
2022/10/26 07:30:16;;;;;;;7.35;4.60;;;;;;;11.15;100.00;101007.13;10497673;28;20048;-65
2022/10/26 07:35:18;;;;;;;6.28;4.35;;;;;;;11.44;100.00;101012.84;10497322;28;20508;-66
2022/10/26 07:40:21;;;;;;;8.82;4.57;;;;;;;11.67;100.00;101019.66;10494233;28;20079;-65
2022/10/26 07:45:22;;;;;;;7.72;4.28;;;;;;;11.96;100.00;101019.28;10496969;28;20059;-64
2022/10/26 07:50:25;;;;;;;8.50;3.83;;;;;;;12.81;100.00;101038.06;10495990;28;20048;-64
2022/10/26 07:55:28;;;;;;;4.97;3.05;;;;;;;14.16;100.00;101048.69;10496691;28;20045;-65
2022/10/26 08:00:30;;;;;;;6.85;3.15;;;;;;;14.64;100.00;101053.09;10496932;28;20048;-63
2022/10/26 08:05:31;;;;;;;5.95;2.95;;;;;;;15.82;100.00;101052.44;10494343;28;20472;-64
2022/10/26 08:10:34;;;;;;;6.45;2.67;;;;;;;16.80;96.03;101071.84;10496260;28;20102;-64
2022/10/26 08:15:36;;;;;;;4.53;2.80;;;;;;;16.14;97.05;101068.06;10495535;28;20113;-66
2022/10/26 08:20:38;;;;;;;6.75;2.67;;;;;;;16.10;100.00;101063.94;10495939;28;20098;-63
2022/10/26 08:25:41;;;;;;;;;;;;;;;15.79;100.00;101071.06;10496364;28;20064;-65
2022/10/26 08:30:43;;;;;;;3.40;1.92;;;;;;;16.45;95.98;101071.38;10495508;28;19920;-65
2022/10/26 08:35:44;;;;;;;5.60;2.60;;;;;;;17.27;100.00;101071.47;10492512;28;20365;-64
2022/10/26 08:40:48;;;;;;;7.35;2.38;;;;;;;17.34;91.52;101072.72;10495229;28;20070;-65
2022/10/26 08:45:58;;;;;;;3.67;2.38;;;;;;;16.66;94.58;101080.66;10495035;28;20051;-65
2022/10/26 08:51:06;;;;;;;7.10;2.35;;;;;;;18.16;94.58;101090.03;10494666;28;20044;-65
2022/10/26 08:56:17;;;;;;;7.43;2.58;;;;;;;18.26;89.82;101075.22;10494357;28;20057;-65
2022/10/26 09:01:20;;;;;;;9.90;2.40;;;;;;;17.21;94.12;101055.09;10497496;28;20075;-66
2022/10/26 09:06:35;;;;;;;6.28;2.28;;;;;;;18.29;93.43;101063.59;10500408;28;20098;-64
2022/10/26 09:11:58;;;;;;;3.72;2.20;;;;;;;17.94;92.95;101075.69;10502437;28;20535;-66
2022/10/26 09:17:16;;;;;;;5.93;2.53;;;;;;;19.20;88.88;101094.94;10503103;28;20086;-65
2022/10/26 09:22:26;;;;;;;5.70;2.20;;;;;;;20.10;93.26;101100.47;10502356;28;20052;-65
2022/10/26 09:27:40;;;;;;;7.47;2.45;;;;;;;19.82;85.25;101121.16;10501953;28;20063;-65
2022/10/26 09:32:48;;;;;;;5.72;2.65;;;;;;;19.02;87.87;101134.97;10502249;28;20048;-63
2022/10/26 09:37:56;;;;;;;11.50;2.60;;;;;;;19.30;86.78;101143.53;10499691;28;20048;-68
2022/10/26 09:43:06;;;;;;;5.15;2.10;;;;;;;19.52;83.25;101155.16;10501326;28;20500;-64
2022/10/26 09:48:19;;;;;;;2.92;1.98;;;;;;;18.60;91.71;101150.38;10501441;28;20048;-65
2022/10/26 09:53:21;;;;;;;4.53;2.22;;;;;;;18.55;91.45;101157.78;10500975;28;20053;-64
2022/10/26 09:58:30;;;;;;;8.95;2.67;;;;;;;18.35;90.40;101157.41;10500892;28;20053;-64
2022/10/26 10:03:33;;;;;;;8.23;2.45;;;;;;;19.85;85.85;101173.88;10500662;28;20489;-67
2022/10/26 10:08:34;;;;;;;6.93;2.90;;;;;;;19.74;92.14;101171.19;10498079;28;20419;-64
2022/10/26 10:13:40;;;;;;;6.13;2.58;;;;;;;19.93;87.01;101176.78;10495868;28;20126;-63
2022/10/26 10:18:55;;;;;;;3.38;2.10;;;;;;;19.95;82.88;101190.72;10499568;28;20447;-65
2022/10/26 10:23:57;;;;;;;3.90;2.30;;;;;;;20.00;89.79;101208.94;10501068;28;20056;-66
2022/10/26 10:29:02;;;;;;;7.50;2.72;;;;;;;19.95;86.20;101219.84;10501663;28;20076;-65
2022/10/26 10:34:16;;;;;;;4.57;2.33;;;;;;;19.64;85.40;101224.00;10500951;28;20068;-66
2022/10/26 10:39:38;;;;;;;5.18;2.65;;;;;;;19.25;88.20;101235.63;10498656;28;20050;-67
2022/10/26 10:44:45;;;;;;;6.05;2.42;;;;;;;19.47;86.10;101241.16;10500417;28;20053;-64
2022/10/26 10:49:54;;;;;;;5.45;2.35;;;;;;;19.54;85.46;101245.84;10500090;28;20198;-66
2022/10/26 10:55:18;;;;;;;5.30;2.30;;;;;;;20.03;84.47;101251.09;10500196;28;20132;-63
2022/10/26 11:00:22;;;;;;;7.45;2.95;;;;;;;20.71;87.43;101246.78;10500091;28;20106;-64
2022/10/26 11:05:39;;;;;;;8.43;2.80;;;;;;;20.06;84.17;101269.38;10499746;28;20469;-67
2022/10/26 11:10:50;;;;;;;6.20;2.30;;;;;;;19.98;84.48;101269.09;10500232;28;20058;-76
2022/10/26 11:16:00;;;;;;;;;;;;;;;19.51;88.98;101267.28;10500014;28;20130;-78
2022/10/26 11:21:28;;;;;;;4.15;2.30;;;;;;;19.55;87.31;101281.97;10500474;28;19974;-81
2022/10/26 11:26:39;;;;;;;6.45;2.33;;;;;;;19.52;87.86;101295.41;10498676;28;20044;-81
2022/10/26 11:31:50;;;;;;;5.25;2.00;;;;;;;19.21;89.85;101296.81;10500301;28;20097;-82
2022/10/26 11:36:59;;;;;;;;;;;;;;;18.79;92.76;101293.47;10498847;28;20045;-79
2022/10/26 11:42:09;;;;;;;5.18;2.17;;;;;;;19.24;91.37;101297.44;10500049;28;20398;-82
2022/10/26 11:47:18;;;;;;;5.63;2.10;;;;;;;20.06;86.89;101282.63;10498677;28;20048;-73
2022/10/26 11:52:28;;;;;;;6.82;2.28;;;;;;;20.97;83.10;101286.31;10496931;28;20052;-65
2022/10/26 11:57:33;;;;;;;4.82;2.17;;;;;;;20.55;84.85;101298.38;10496206;28;20126;-67
2022/10/26 12:02:41;;;;;;;4.75;1.80;;;;;;;21.13;80.72;101306.31;10495917;28;20076;-63
2022/10/26 12:07:50;;;;;;;3.92;2.08;;;;;;;20.35;81.79;101307.84;10493697;28;20102;-66
2022/10/26 12:13:01;;;;;;;7.80;2.22;;;;;;;20.75;82.16;101301.25;10495708;28;20480;-65
2022/10/26 12:18:14;;;;;;;5.15;2.13;;;;;;;20.86;82.88;101315.50;10497434;28;20480;-71
2022/10/26 12:23:17;;;;;;;5.80;2.22;;;;;;;20.61;83.11;101322.69;10496506;28;20040;-79
2022/10/26 12:28:41;;;;;;;5.93;2.00;;;;;;;20.53;81.27;101325.97;10497560;28;20060;-78
2022/10/26 12:33:51;;;;;;;4.03;2.03;;;;;;;20.78;81.24;101324.91;10498939;28;20052;-80
2022/10/26 12:39:01;;;;;;;3.00;1.80;;;;;;;19.85;85.38;101322.16;10497272;28;20049;-73
2022/10/26 12:44:36;;;;;;;6.93;1.90;;;;;;;20.31;81.23;101333.75;10498916;28;20055;-80
2022/10/26 12:50:01;;;;;;;4.40;1.90;;;;;;;20.22;82.35;101334.44;10500014;28;20071;-75
2022/10/26 12:55:34;;;;;;;3.40;1.80;;;;;;;20.00;82.85;101325.50;10500872;28;20049;-80
2022/10/26 13:00:48;;;;;;;5.38;1.83;;;;;;;20.20;80.84;101329.28;10497920;28;20045;-78
2022/10/26 13:06:17;;;;;;;4.80;2.03;;;;;;;20.03;81.52;101333.22;10494753;28;20051;-80
2022/10/26 13:11:28;;;;;;;3.83;2.10;;;;;;;20.41;83.03;101333.03;10497418;28;20462;-79
2022/10/26 13:16:32;;;;;;;4.05;1.92;;;;;;;20.32;81.20;101346.03;10495847;28;20060;-75
2022/10/26 13:21:48;;;;;;;5.45;1.83;;;;;;;20.16;81.16;101342.88;10495395;28;20052;-82
2022/10/26 13:27:41;;;;;;;3.78;1.73;;;;;;;20.04;80.43;101348.13;10496106;28;20091;-78
2022/10/26 13:32:53;;;;;;;4.18;1.85;;;;;;;20.15;80.96;101365.03;10476150;28;20045;-81
2022/10/26 13:37:57;;;;;;;2.80;1.63;;;;;;;20.41;80.47;101364.84;10451573;28;20057;-76
2022/10/26 13:43:04;;;;;;;5.03;1.77;;;;;;;20.39;74.70;101372.09;10454719;28;20076;-82
2022/10/26 13:48:16;;;;;;;5.72;1.80;;;;;;;20.05;78.12;101368.38;10456268;28;20049;-79
2022/10/26 13:53:24;;;;;;;1.90;1.15;;;;;;;19.68;79.02;101352.53;10462309;28;20045;-78
2022/10/26 13:58:34;;;;;;;4.57;1.38;;;;;;;19.65;77.93;101352.75;10462518;28;20053;-77
2022/10/26 14:03:38;;;;;;;5.43;1.67;;;;;;;19.64;76.52;101361.66;10461313;28;20519;-78
2022/10/26 14:08:45;;;;;;;3.95;1.20;;;;;;;19.55;75.63;101369.31;10457451;28;20493;-75
2022/10/26 14:13:50;;;;;;;4.00;1.98;;;;;;;19.63;77.98;101373.19;10460510;28;20518;-79
2022/10/26 14:18:53;;;;;;;6.10;1.92;;;;;;;19.37;78.18;101382.03;10461908;28;20057;-79
2022/10/26 14:23:58;;;;;;;3.28;1.48;;;;;;;19.45;77.62;101392.09;10460318;28;20110;-79
2022/10/26 14:29:01;;;;;;;8.27;1.77;;;;;;;19.46;78.82;101408.84;10461051;28;20095;-82
2022/10/26 14:34:06;;;;;;;3.15;1.40;;;;;;;19.26;79.69;101419.88;10460284;28;20069;-79
2022/10/26 14:39:24;;;;;;;8.00;2.00;;;;;;;19.29;79.51;101422.31;10457467;28;20471;-75
2022/10/26 14:44:26;;;;;;;3.72;1.60;;;;;;;19.29;81.84;101437.31;10461039;28;20049;-81
2022/10/26 14:49:30;;;;;;;4.43;1.50;;;;;;;19.16;80.79;101432.06;10459844;28;20519;-79
2022/10/26 14:54:33;;;;;;;3.75;1.67;;;;;;;19.23;81.54;101433.31;10458774;28;20107;-82
2022/10/26 14:59:35;;;;;;;6.65;1.90;;;;;;;19.02;82.05;101447.03;10457622;28;20041;-78
2022/10/26 15:04:42;;;;;;;5.35;1.58;;;;;;;18.85;83.33;101447.38;10457677;28;20520;-78
2022/10/26 15:09:46;;;;;;;5.65;1.50;;;;;;;18.81;83.19;101452.00;10455793;28;20562;-76
2022/10/26 15:14:50;;;;;;;3.85;1.77;;;;;;;18.72;84.28;101466.69;10487113;28;20056;-83
2022/10/26 15:19:55;;;;;;;5.85;2.30;;;;;;;18.60;84.97;101467.50;10467229;28;20090;-79
2022/10/26 15:25:01;;;;;;;4.72;2.03;;;;;;;18.56;85.82;101484.53;10498711;28;20048;-79
2022/10/26 15:30:19;;;;;;;4.07;1.77;;;;;;;18.41;87.00;101489.91;10499936;28;20059;-80
2022/10/26 15:35:32;;;;;;;11.15;2.38;;;;;;;18.37;88.40;101499.81;10497533;28;20527;-80
2022/10/26 15:40:35;;;;;;;6.38;2.38;;;;;;;18.35;88.77;101500.84;10496396;28;20133;-82
2022/10/26 15:45:47;;;;;;;7.35;2.65;;;;;;;18.32;89.51;101501.03;10497733;28;20131;-81
2022/10/26 15:50:51;;;;;;;5.03;2.13;;;;;;;18.16;90.85;101503.84;10498012;28;20078;-80
2022/10/26 15:55:56;;;;;;;5.55;2.00;;;;;;;18.10;91.40;101502.44;10497962;28;20044;-78
2022/10/26 16:00:57;;;;;;;5.82;2.60;;;;;;;18.03;91.84;101523.06;10498163;28;20527;-79
2022/10/26 16:06:02;;;;;;;5.13;2.35;;;;;;;17.98;92.14;101520.75;10495387;28;20637;-83
2022/10/26 16:11:04;;;;;;;6.13;2.00;;;;;;;17.99;91.42;101522.44;10497329;28;20048;-82
2022/10/26 16:16:13;;;;;;;10.18;2.30;;;;;;;17.91;92.49;101530.00;10496631;28;20226;-80
2022/10/26 16:21:20;;;;;;;7.90;1.92;;;;;;;17.66;93.50;101542.09;10497077;28;20053;-78
2022/10/26 16:26:23;;;;;;;5.18;2.20;;;;;;;17.40;95.73;101547.16;10497086;28;20106;-80
2022/10/26 16:31:26;;;;;;;7.03;2.08;;;;;;;17.21;96.13;101548.25;10496595;28;20044;-82
2022/10/26 16:36:31;;;;;;;5.20;2.10;;;;;;;17.12;97.67;101556.72;10494103;28;20459;-82
2022/10/26 16:41:34;;;;;;;4.78;1.92;;;;;;;17.02;98.65;101561.66;10495951;28;20059;-78
2022/10/26 16:46:36;;;;;;;4.22;1.98;;;;;;;16.83;95.92;101575.03;10495538;28;20050;-80
2022/10/26 16:51:40;;;;;;;7.13;2.13;;;;;;;16.68;100.00;101577.63;10494651;28;20113;-79
2022/10/26 16:56:42;;;;;;;4.07;2.03;;;;;;;16.60;99.48;101574.56;10493680;28;20052;-82
2022/10/26 17:01:45;;;;;;;4.28;1.88;;;;;;;16.56;100.00;101579.16;10493765;28;20047;-81
2022/10/26 17:06:48;;;;;;;4.60;1.92;;;;;;;16.40;100.00;101591.50;10492037;28;20059;-79
2022/10/26 17:11:54;;;;;;;5.43;2.17;;;;;;;16.24;100.00;101594.09;10493955;28;20114;-81
2022/10/26 17:16:56;;;;;;;7.65;2.10;;;;;;;16.01;100.00;101604.13;10493622;28;20052;-80
2022/10/26 17:21:58;;;;;;;;;;;;;;;16.05;100.00;101616.19;10496934;28;20537;-82
2022/10/26 17:27:00;;;;;;;7.00;2.53;;;;;;;15.85;100.00;101615.44;10503458;28;20049;-80
2022/10/26 17:32:02;;;;;;;;;;;;;;;15.65;100.00;101614.69;10502846;28;20059;-80
2022/10/26 17:37:05;;;;;;;7.35;2.58;;;;;;;15.60;100.00;101627.22;10499741;28;19928;-81
2022/10/26 17:42:06;;;;;;;9.52;2.78;;;;;;;15.49;100.00;101640.91;10501143;28;20534;-79
2022/10/26 17:47:08;;;;;;;;;;;;;;;15.48;100.00;101644.47;10484091;28;20045;-79
2022/10/26 17:52:11;;;;;;;9.30;2.78;;;;;;;15.64;100.00;101655.06;10459343;28;19964;-81
2022/10/26 17:57:13;;;;;;;5.15;2.60;;;;;;;15.66;100.00;101657.63;10458083;28;20052;-81
2022/10/26 18:02:15;;;;;;;;;;;;;;;15.49;100.00;101671.63;10471260;28;20094;-82
2022/10/26 18:07:18;;;;;;;7.03;3.83;;;;;;;15.30;100.00;101678.66;10464682;28;19975;-81
2022/10/26 18:12:19;;;;;;;8.45;3.70;;;;;;;15.12;100.00;101680.41;10458556;28;20103;-84
2022/10/26 18:17:21;;;;;;;;;;;;;;;15.12;100.00;101685.66;10417629;28;20053;-83
2022/10/26 18:22:24;;;;;;;7.23;3.27;;;;;;;15.05;100.00;101690.38;10417215;28;19920;-80
2022/10/26 18:27:26;;;;;;;11.63;3.60;;;;;;;15.07;100.00;101698.19;10416944;28;20064;-78
2022/10/26 18:32:28;;;;;;;17.95;4.13;;;;;;;14.98;100.00;101703.88;10416571;28;20103;-83
2022/10/26 18:37:31;;;;;;;11.43;3.63;;;;;;;15.05;100.00;101718.41;10414244;28;20056;-81
2022/10/26 18:42:34;;;;;;;13.00;4.13;;;;;;;15.10;100.00;101712.94;10415772;28;20530;-80
2022/10/26 18:47:35;;;;;;;10.60;3.75;;;;;;;14.91;100.00;101725.19;10416629;28;20547;-81
2022/10/26 18:52:38;;;;;;;11.68;3.35;;;;;;;14.75;100.00;101725.00;10415834;28;20045;-81
2022/10/26 18:57:40;;;;;;;9.52;3.60;;;;;;;14.28;100.00;101731.50;10415612;28;20054;-80
2022/10/26 19:02:43;;;;;;;20.67;3.70;;;;;;;13.91;100.00;101733.94;10415332;28;20050;-83
2022/10/26 19:07:46;;;;;;;10.48;3.58;;;;;;;13.56;100.00;101733.63;10413176;28;20099;-83
2022/10/26 19:12:48;;;;;;;15.60;3.97;;;;;;;13.31;100.00;101745.09;10419072;28;20505;-81
2022/10/26 19:17:50;;;;;;;19.17;4.35;;;;;;;13.20;100.00;101737.63;10445320;28;20150;-81
2022/10/26 19:22:54;;;;;;;14.85;4.10;;;;;;;12.98;100.00;101748.94;10458960;28;20049;-81
2022/10/26 19:27:56;;;;;;;15.50;4.20;;;;;;;12.82;100.00;101754.78;10497510;28;20492;-80
2022/10/26 19:32:58;;;;;;;12.90;4.45;;;;;;;12.78;100.00;101762.78;10458872;28;20106;-81
2022/10/26 19:38:01;;;;;;;13.82;3.97;;;;;;;12.72;100.00;101763.88;10453573;28;20056;-82
2022/10/26 19:43:03;;;;;;;12.68;4.70;;;;;;;12.66;100.00;101770.19;10455906;28;20103;-83
2022/10/26 19:48:06;;;;;;;17.40;4.13;;;;;;;12.55;100.00;101767.97;10454921;28;20071;-82
2022/10/26 19:53:09;;;;;;;15.15;4.45;;;;;;;12.45;100.00;101766.56;10455367;28;20049;-81
2022/10/26 19:58:10;;;;;;;14.48;4.13;;;;;;;12.41;100.00;101780.69;10471277;28;20048;-82
2022/10/26 20:03:12;;;;;;;13.70;4.57;;;;;;;12.64;100.00;101786.88;10496306;28;20488;-83
2022/10/26 20:08:15;;;;;;;10.80;4.97;;;;;;;12.96;100.00;101792.69;10470721;28;20049;-79
2022/10/26 20:13:17;;;;;;;10.13;4.13;;;;;;;13.11;100.00;101791.28;10454942;28;20061;-81
2022/10/26 20:18:19;;;;;;;9.65;4.80;;;;;;;13.20;100.00;101795.28;10455148;28;20057;-83
2022/10/26 20:23:22;;;;;;;12.98;4.63;;;;;;;13.23;100.00;101801.28;10450475;28;20375;-80
2022/10/26 20:28:24;;;;;;;12.07;4.38;;;;;;;13.18;100.00;101802.38;10444794;28;20461;-82
2022/10/26 20:33:26;;;;;;;11.00;4.38;;;;;;;13.08;100.00;101807.97;10454694;28;20412;-81
2022/10/26 20:38:30;;;;;;;21.80;4.40;;;;;;;13.00;100.00;101810.00;10448264;28;20056;-80
2022/10/26 20:43:32;;;;;;;8.00;4.20;;;;;;;12.91;100.00;101811.22;10445286;28;20069;-81
2022/10/26 20:48:37;;;;;;;12.98;4.32;;;;;;;13.09;100.00;101808.81;10456123;28;20521;-81
2022/10/26 20:53:46;;;;;;;8.30;4.45;;;;;;;13.11;100.00;101818.31;10455806;28;20064;-81
2022/10/26 20:58:54;;;;;;;9.52;4.80;;;;;;;13.01;100.00;101828.28;10465130;28;20056;-83
2022/10/26 21:03:58;;;;;;;11.88;4.78;;;;;;;13.17;100.00;101837.34;10469345;28;20041;-84
2022/10/26 21:09:01;;;;;;;9.15;4.18;;;;;;;13.27;100.00;101828.22;10465195;28;20501;-85
2022/10/26 21:14:04;;;;;;;7.22;3.92;;;;;;;13.32;100.00;101820.19;10467073;28;20116;-79
2022/10/26 21:19:07;;;;;;;13.93;4.22;;;;;;;13.24;100.00;101833.59;10467098;28;20103;-81
2022/10/26 21:24:13;;;;;;;12.10;4.00;;;;;;;13.35;100.00;101834.00;10467426;28;20513;-80
2022/10/26 21:29:15;;;;;;;9.52;4.18;;;;;;;13.56;100.00;101838.53;10467301;28;20045;-82
2022/10/26 21:34:16;;;;;;;;;;;;;;;13.61;100.00;101836.56;10468304;28;20114;-80
2022/10/26 21:39:19;;;;;;;8.67;3.87;;;;;;;13.82;100.00;101842.72;10464816;28;20346;-82
2022/10/26 21:44:21;;;;;;;7.43;3.67;;;;;;;13.95;100.00;101842.22;10466598;28;20044;-78
2022/10/26 21:49:24;;;;;;;11.52;4.03;;;;;;;14.22;100.00;101852.50;10467892;28;20103;-79
2022/10/26 21:54:27;;;;;;;6.65;3.00;;;;;;;14.23;100.00;101849.81;10466825;28;20049;-79
2022/10/26 21:59:28;;;;;;;12.07;3.40;;;;;;;14.16;100.00;101849.22;10466522;28;20508;-83
2022/10/26 22:04:30;;;;;;;5.75;3.00;;;;;;;14.20;100.00;101854.38;10466791;28;20099;-82
2022/10/26 22:09:36;;;;;;;;;;;;;;;14.21;100.00;101856.06;10460783;28;20049;-81
2022/10/26 22:14:38;;;;;;;5.93;3.00;;;;;;;14.26;100.00;101847.06;10459642;28;19971;-80
2022/10/26 22:19:39;;;;;;;4.82;2.92;;;;;;;14.25;100.00;101844.50;10459538;28;20095;-83
2022/10/26 22:24:42;;;;;;;5.00;3.30;;;;;;;14.18;100.00;101845.69;10459365;28;20455;-79
2022/10/26 22:29:44;;;;;;;6.78;2.78;;;;;;;14.00;100.00;101840.28;10459679;28;20102;-82
2022/10/26 22:34:47;;;;;;;4.55;2.85;;;;;;;13.96;100.00;101839.53;10459579;28;20049;-83
2022/10/26 22:39:50;;;;;;;6.03;3.13;;;;;;;13.89;100.00;101831.06;10456814;28;20115;-80
2022/10/26 22:44:53;;;;;;;5.43;3.00;;;;;;;13.70;100.00;101835.34;10459347;28;20103;-83
2022/10/26 22:49:55;;;;;;;8.65;3.38;;;;;;;13.54;100.00;101835.97;10458366;28;20057;-81
2022/10/26 22:54:58;;;;;;;6.78;3.10;;;;;;;13.40;100.00;101828.59;10458486;28;20389;-85
2022/10/26 22:59:59;;;;;;;6.70;3.22;;;;;;;13.38;100.00;101831.28;10458061;28;20523;-83
2022/10/26 23:05:01;;;;;;;7.25;3.28;;;;;;;13.38;100.00;101823.41;10458409;28;20083;-80
2022/10/26 23:10:05;;;;;;;7.22;3.30;;;;;;;13.52;100.00;101827.31;10455847;28;20433;-81
2022/10/26 23:15:09;;;;;;;4.68;2.85;;;;;;;13.62;100.00;101828.66;10457319;28;20582;-86
2022/10/26 23:20:11;;;;;;;7.85;3.13;;;;;;;13.60;100.00;101840.13;10457028;28;20106;-83